INFORMACIÓN METAR y TAF
METAR FOR LERS
ADDS - METARS form results

(1955 UTC 29 November 2021)
Data provider http://aviationweather.gov/metar/data/
 
METAR text: LERS 291930Z VRB05KT CAVOK 11/03 Q1016
Conditions at: LERS (REUS (CIV/MIL) , ES) observed 1930 UTC 29 November 2021
Temperature: 11.0°C (52°F)
Dewpoint: 3.0°C (37°F) [RH = 58%]
Pressure (altimeter): 30.00 inches Hg (1016.0 mb)
Winds: variable direction winds at 6 MPH (5 knots; 2.6 m/s)
Visibility: 6 or more miles (10+ km)
Ceiling: ceiling and visibility are OK
Clouds: unknown
Weather: no significant weather observed at this time

METAR text: LERS 291900Z 29005KT 230V010 CAVOK 12/03 Q1016
Conditions at: LERS (REUS (CIV/MIL) , ES) observed 1900 UTC 29 November 2021
Temperature: 12.0°C (54°F)
Dewpoint: 3.0°C (37°F) [RH = 54%]
Pressure (altimeter): 30.00 inches Hg (1016.0 mb)
Winds: from the WNW (290 degrees) at 6 MPH (5 knots; 2.6 m/s)
Visibility: 6 or more miles (10+ km)
Ceiling: ceiling and visibility are OK
Clouds: unknown
Weather: no significant weather observed at this time

Forecast for: AMD
Text: TAF AMD LERS 291943Z 2919/3015 VRB03KT 9999 FEW030 TX16/3013Z TN02/3006Z
Forecast period: 1900 UTC 29 November 2021 to 1500 UTC 30 November 2021
Forecast type: FROM: standard forecast or significant change
Winds: variable direction winds at 3 MPH (3 knots; 1.5 m/s)
Visibility: 6 or more miles (10+ km)
Ceiling: at least 12,000 feet AGL
Clouds: few clouds at 3000 feet AGL
Weather: no significant weather forecast for this period
Text: TEMPO 2919/2922 28015KT
Forecast period: 1900 to 2200 UTC 29 November 2021
Forecast type: TEMPORARY: The following changes expected for less than half the time period
Winds: from the W (280 degrees) at 17 MPH (15 knots; 7.7 m/s)
Visibility: missing
Ceiling: unknown
Clouds: missing
Weather: no significant weather forecast for this period

 MAPA DE AEROPUERTO

 INFORMACIÓN DE PISTA
Pista 07 Longitud 8054 ft Ancho 148 ft
Elevación 231 ft Umbral desplazado 853 ft Rumbo de pista 69
Pista 25 Longitud 8054 ft Ancho 148 ft
Elevación 234 ft Umbral desplazado 0 ft Rumbo de pista 249
Pista 12 Longitud 3117 ft Ancho 115 ft
Elevación 226 ft Umbral desplazado 0 ft Rumbo de pista 111
Pista 30 Longitud 3117 ft Ancho 115 ft
Elevación 198 ft Umbral desplazado 0 ft Rumbo de pista 291

 FRECUANCIAS DEL AEROPUERTO
Tipo APP Nombre APP Frecuencia 118.15 MHZ
Tipo GND Nombre GND Frecuencia 121.7 MHZ
Tipo TWR Nombre TWR Frecuencia 118.15 MHZ

 RADIO AYUDAS DEL AEROPUERTO
Tipo VOR-DME Nombre Reus Frecuencia 114200 KHZ
Tipo NDB Nombre Reus Frecuencia 424 KHZ



Powered by Virtual Airlines Manager [v2.6.2]